sensor_id;sensor_type;location;lat;lon;timestamp;pressure;altitude;pressure_sealevel;temperature;humidity
46846;BME280;33947;46.804;134.252;2022-08-03T00:01:43;100069.50;;;25.28;80.42
46846;BME280;33947;46.804;134.252;2022-08-03T00:04:48;100079.19;;;25.31;79.85
46846;BME280;33947;46.804;134.252;2022-08-03T00:07:52;100078.44;;;25.38;79.79
46846;BME280;33947;46.804;134.252;2022-08-03T00:10:57;100086.59;;;25.48;79.32
46846;BME280;33947;46.804;134.252;2022-08-03T00:14:02;100091.13;;;25.57;78.50
46846;BME280;33947;46.804;134.252;2022-08-03T00:17:07;100086.38;;;25.69;79.01
46846;BME280;33947;46.804;134.252;2022-08-03T00:20:11;100087.59;;;25.75;78.91
46846;BME280;33947;46.804;134.252;2022-08-03T00:23:15;100083.91;;;25.94;78.01
46846;BME280;33947;46.804;134.252;2022-08-03T00:26:20;100086.16;;;25.81;77.36
46846;BME280;33947;46.804;134.252;2022-08-03T00:29:24;100088.38;;;25.95;78.02
46846;BME280;33947;46.804;134.252;2022-08-03T00:32:29;100088.13;;;26.35;77.49
46846;BME280;33947;46.804;134.252;2022-08-03T00:35:34;100087.69;;;26.48;75.82
46846;BME280;33947;46.804;134.252;2022-08-03T00:38:53;100088.25;;;26.51;75.97
46846;BME280;33947;46.804;134.252;2022-08-03T00:42:01;100087.88;;;26.46;75.86
46846;BME280;33947;46.804;134.252;2022-08-03T00:45:05;100078.44;;;26.22;76.16
46846;BME280;33947;46.804;134.252;2022-08-03T00:48:10;100063.56;;;25.98;76.10
46846;BME280;33947;46.804;134.252;2022-08-03T00:51:34;100066.03;;;25.92;77.54
46846;BME280;33947;46.804;134.252;2022-08-03T00:54:39;100070.16;;;26.42;77.05
46846;BME280;33947;46.804;134.252;2022-08-03T00:57:43;100071.63;;;28.11;73.57
46846;BME280;33947;46.804;134.252;2022-08-03T01:00:48;100060.13;;;29.40;67.92
46846;BME280;33947;46.804;134.252;2022-08-03T01:03:52;100065.81;;;29.70;65.50
46846;BME280;33947;46.804;134.252;2022-08-03T01:07:10;100067.84;;;30.08;63.57
46846;BME280;33947;46.804;134.252;2022-08-03T01:10:27;100063.34;;;30.39;62.21
46846;BME280;33947;46.804;134.252;2022-08-03T01:20:10;100064.25;;;30.08;62.21
46846;BME280;33947;46.804;134.252;2022-08-03T01:23:42;100060.31;;;29.70;65.10
46846;BME280;33947;46.804;134.252;2022-08-03T01:30:06;100055.47;;;28.68;68.31
46846;BME280;33947;46.804;134.252;2022-08-03T01:33:24;100058.19;;;28.51;69.17
46846;BME280;33947;46.804;134.252;2022-08-03T01:36:32;100055.94;;;28.30;69.90
46846;BME280;33947;46.804;134.252;2022-08-03T01:39:36;100054.03;;;28.14;71.39
46846;BME280;33947;46.804;134.252;2022-08-03T01:42:42;100051.94;;;27.91;72.19
46846;BME280;33947;46.804;134.252;2022-08-03T01:45:47;100055.25;;;27.52;73.79
46846;BME280;33947;46.804;134.252;2022-08-03T01:48:53;100044.16;;;27.53;73.21
46846;BME280;33947;46.804;134.252;2022-08-03T01:51:58;100054.34;;;28.02;72.27
46846;BME280;33947;46.804;134.252;2022-08-03T01:55:06;100053.56;;;28.68;67.91
46846;BME280;33947;46.804;134.252;2022-08-03T01:58:12;100047.94;;;28.53;69.47
46846;BME280;33947;46.804;134.252;2022-08-03T02:01:18;100048.44;;;28.40;70.47
46846;BME280;33947;46.804;134.252;2022-08-03T02:04:23;100048.97;;;28.85;69.33
46846;BME280;33947;46.804;134.252;2022-08-03T02:07:29;100038.16;;;29.00;69.42
46846;BME280;33947;46.804;134.252;2022-08-03T02:10:35;100042.78;;;29.88;67.53
46846;BME280;33947;46.804;134.252;2022-08-03T02:13:40;100046.22;;;29.50;66.90
46846;BME280;33947;46.804;134.252;2022-08-03T02:16:45;100040.84;;;29.65;67.67
46846;BME280;33947;46.804;134.252;2022-08-03T02:19:49;100044.28;;;29.19;67.63
46846;BME280;33947;46.804;134.252;2022-08-03T02:22:54;100036.47;;;29.56;67.72
46846;BME280;33947;46.804;134.252;2022-08-03T02:26:00;100039.31;;;29.94;66.05
46846;BME280;33947;46.804;134.252;2022-08-03T02:29:06;100044.97;;;30.24;65.67
46846;BME280;33947;46.804;134.252;2022-08-03T02:32:13;100036.75;;;30.24;65.73
46846;BME280;33947;46.804;134.252;2022-08-03T02:35:17;100046.06;;;30.38;64.62
46846;BME280;33947;46.804;134.252;2022-08-03T02:38:25;100041.00;;;29.72;67.62
46846;BME280;33947;46.804;134.252;2022-08-03T02:41:35;100025.06;;;30.07;66.15
46846;BME280;33947;46.804;134.252;2022-08-03T02:44:41;100020.69;;;29.89;68.52
46846;BME280;33947;46.804;134.252;2022-08-03T02:47:51;100025.94;;;30.46;66.42
46846;BME280;33947;46.804;134.252;2022-08-03T02:50:57;100025.13;;;30.45;66.98
46846;BME280;33947;46.804;134.252;2022-08-03T02:54:03;100016.63;;;30.55;66.15
46846;BME280;33947;46.804;134.252;2022-08-03T02:57:07;100017.56;;;30.47;66.10
46846;BME280;33947;46.804;134.252;2022-08-03T03:00:13;100015.88;;;30.23;68.12
46846;BME280;33947;46.804;134.252;2022-08-03T03:03:29;100013.22;;;30.53;68.20
46846;BME280;33947;46.804;134.252;2022-08-03T03:06:46;100011.94;;;30.64;66.96
46846;BME280;33947;46.804;134.252;2022-08-03T03:09:51;100009.06;;;30.57;67.41
46846;BME280;33947;46.804;134.252;2022-08-03T03:12:57;100007.44;;;30.86;68.37
46846;BME280;33947;46.804;134.252;2022-08-03T03:16:02;100002.72;;;30.95;66.34
46846;BME280;33947;46.804;134.252;2022-08-03T03:19:07;99997.16;;;30.88;67.63
46846;BME280;33947;46.804;134.252;2022-08-03T03:22:12;99991.06;;;30.93;68.04
46846;BME280;33947;46.804;134.252;2022-08-03T03:25:18;99994.28;;;30.67;67.95
46846;BME280;33947;46.804;134.252;2022-08-03T03:28:23;99983.81;;;30.47;68.32
46846;BME280;33947;46.804;134.252;2022-08-03T03:31:28;99979.28;;;30.39;69.15
46846;BME280;33947;46.804;134.252;2022-08-03T03:34:32;99983.38;;;30.58;69.50
46846;BME280;33947;46.804;134.252;2022-08-03T03:37:37;99981.66;;;30.57;68.22
46846;BME280;33947;46.804;134.252;2022-08-03T03:40:41;99971.13;;;30.46;69.74
46846;BME280;33947;46.804;134.252;2022-08-03T03:43:47;99974.66;;;30.55;69.67
46846;BME280;33947;46.804;134.252;2022-08-03T03:46:53;99964.06;;;30.52;69.55
46846;BME280;33947;46.804;134.252;2022-08-03T03:49:57;99973.81;;;30.54;69.73
46846;BME280;33947;46.804;134.252;2022-08-03T03:53:02;99975.50;;;30.40;69.79
46846;BME280;33947;46.804;134.252;2022-08-03T03:56:10;99972.34;;;30.28;71.24
46846;BME280;33947;46.804;134.252;2022-08-03T03:59:15;99970.22;;;30.54;69.15
46846;BME280;33947;46.804;134.252;2022-08-03T04:02:19;99975.16;;;30.58;69.25
46846;BME280;33947;46.804;134.252;2022-08-03T04:05:24;99967.81;;;30.74;68.68
46846;BME280;33947;46.804;134.252;2022-08-03T04:08:47;99976.72;;;30.91;68.35
46846;BME280;33947;46.804;134.252;2022-08-03T04:12:10;99967.34;;;30.85;67.69
46846;BME280;33947;46.804;134.252;2022-08-03T04:15:15;99949.09;;;30.63;68.59
46846;BME280;33947;46.804;134.252;2022-08-03T04:18:20;99942.94;;;30.22;69.95
46846;BME280;33947;46.804;134.252;2022-08-03T04:21:25;99921.66;;;29.86;71.77
46846;BME280;33947;46.804;134.252;2022-08-03T04:24:33;99907.84;;;29.56;72.79
46846;BME280;33947;46.804;134.252;2022-08-03T04:27:39;99903.47;;;29.46;73.09
46846;BME280;33947;46.804;134.252;2022-08-03T04:30:44;99906.00;;;29.16;74.10
46846;BME280;33947;46.804;134.252;2022-08-03T04:33:51;99910.84;;;29.06;74.76
46846;BME280;33947;46.804;134.252;2022-08-03T04:37:00;99917.06;;;28.75;74.89
46846;BME280;33947;46.804;134.252;2022-08-03T04:40:07;99918.53;;;28.38;78.43
46846;BME280;33947;46.804;134.252;2022-08-03T04:43:12;99943.75;;;27.57;85.51
46846;BME280;33947;46.804;134.252;2022-08-03T04:46:18;99974.09;;;26.58;87.72
46846;BME280;33947;46.804;134.252;2022-08-03T04:49:25;99985.94;;;25.58;83.55
46846;BME280;33947;46.804;134.252;2022-08-03T04:52:30;99949.81;;;25.84;87.47
46846;BME280;33947;46.804;134.252;2022-08-03T04:55:34;99906.44;;;26.19;82.38
46846;BME280;33947;46.804;134.252;2022-08-03T04:58:39;99933.28;;;26.40;79.26
46846;BME280;33947;46.804;134.252;2022-08-03T05:01:43;99941.22;;;26.33;80.30
46846;BME280;33947;46.804;134.252;2022-08-03T05:04:47;99947.22;;;26.37;78.65
46846;BME280;33947;46.804;134.252;2022-08-03T05:14:51;99900.13;;;26.71;79.15
46846;BME280;33947;46.804;134.252;2022-08-03T05:21:42;99874.25;;;26.75;81.44
46846;BME280;33947;46.804;134.252;2022-08-03T05:24:54;99905.72;;;27.04;78.87
46846;BME280;33947;46.804;134.252;2022-08-03T05:27:59;99910.69;;;26.74;75.87
46846;BME280;33947;46.804;134.252;2022-08-03T05:31:04;99924.69;;;25.72;75.83
46846;BME280;33947;46.804;134.252;2022-08-03T05:34:08;99903.75;;;25.36;78.35
46846;BME280;33947;46.804;134.252;2022-08-03T05:37:13;99924.09;;;25.04;80.14
46846;BME280;33947;46.804;134.252;2022-08-03T05:40:20;99927.06;;;24.73;80.55
46846;BME280;33947;46.804;134.252;2022-08-03T05:43:25;99928.06;;;24.24;84.37
46846;BME280;33947;46.804;134.252;2022-08-03T05:46:30;99857.88;;;24.49;81.79
46846;BME280;33947;46.804;134.252;2022-08-03T05:49:35;99869.66;;;24.58;83.68
46846;BME280;33947;46.804;134.252;2022-08-03T05:52:40;99898.09;;;23.87;90.24
46846;BME280;33947;46.804;134.252;2022-08-03T05:55:46;99900.66;;;23.88;89.42
46846;BME280;33947;46.804;134.252;2022-08-03T05:58:57;99887.78;;;24.20;86.50
46846;BME280;33947;46.804;134.252;2022-08-03T06:02:22;99927.59;;;24.39;86.16
46846;BME280;33947;46.804;134.252;2022-08-03T06:05:27;99936.72;;;24.57;85.40
46846;BME280;33947;46.804;134.252;2022-08-03T06:08:33;99952.91;;;24.97;83.75
46846;BME280;33947;46.804;134.252;2022-08-03T06:11:38;99940.63;;;24.93;84.30
46846;BME280;33947;46.804;134.252;2022-08-03T06:14:48;99949.78;;;24.92;83.19
46846;BME280;33947;46.804;134.252;2022-08-03T06:17:53;99953.66;;;24.79;83.87
46846;BME280;33947;46.804;134.252;2022-08-03T06:26:28;99983.09;;;24.84;88.25
46846;BME280;33947;46.804;134.252;2022-08-03T06:29:33;99984.69;;;24.87;86.59
46846;BME280;33947;46.804;134.252;2022-08-03T06:32:39;99975.69;;;24.76;86.49
46846;BME280;33947;46.804;134.252;2022-08-03T06:35:54;99973.13;;;24.65;86.18
46846;BME280;33947;46.804;134.252;2022-08-03T06:38:59;99967.06;;;24.23;88.78
46846;BME280;33947;46.804;134.252;2022-08-03T06:42:04;99972.00;;;24.57;87.11
46846;BME280;33947;46.804;134.252;2022-08-03T06:45:12;99979.97;;;24.79;85.94
46846;BME280;33947;46.804;134.252;2022-08-03T06:48:17;99988.56;;;24.74;86.34
46846;BME280;33947;46.804;134.252;2022-08-03T06:51:22;99973.13;;;24.84;84.93
46846;BME280;33947;46.804;134.252;2022-08-03T06:54:47;99980.78;;;24.99;84.76
46846;BME280;33947;46.804;134.252;2022-08-03T06:57:51;99969.09;;;25.17;83.70
46846;BME280;33947;46.804;134.252;2022-08-03T07:01:01;99958.56;;;25.32;82.50
46846;BME280;33947;46.804;134.252;2022-08-03T07:17:05;100042.16;;;24.82;91.58
46846;BME280;33947;46.804;134.252;2022-08-03T07:20:13;100066.72;;;25.00;89.34
46846;BME280;33947;46.804;134.252;2022-08-03T07:23:20;100041.03;;;24.75;88.23
46846;BME280;33947;46.804;134.252;2022-08-03T07:26:25;100014.78;;;25.41;84.45
46846;BME280;33947;46.804;134.252;2022-08-03T07:29:30;100016.50;;;25.88;81.31
46846;BME280;33947;46.804;134.252;2022-08-03T07:32:36;100002.28;;;25.94;80.06
46846;BME280;33947;46.804;134.252;2022-08-03T07:35:52;100012.56;;;26.00;78.74
46846;BME280;33947;46.804;134.252;2022-08-03T07:38:57;100022.75;;;25.98;77.96
46846;BME280;33947;46.804;134.252;2022-08-03T07:42:16;100014.16;;;25.93;77.03
46846;BME280;33947;46.804;134.252;2022-08-03T07:45:21;100012.25;;;25.85;77.62
46846;BME280;33947;46.804;134.252;2022-08-03T07:48:26;100006.56;;;25.79;77.17
46846;BME280;33947;46.804;134.252;2022-08-03T08:01:21;100005.47;;;26.08;76.78
46846;BME280;33947;46.804;134.252;2022-08-03T08:04:26;100013.31;;;25.93;77.71
46846;BME280;33947;46.804;134.252;2022-08-03T08:07:30;100021.78;;;25.71;78.24
46846;BME280;33947;46.804;134.252;2022-08-03T08:10:35;100027.63;;;25.49;79.82
46846;BME280;33947;46.804;134.252;2022-08-03T08:13:40;100031.91;;;25.51;80.26
46846;BME280;33947;46.804;134.252;2022-08-03T08:16:45;100011.72;;;25.54;79.38
46846;BME280;33947;46.804;134.252;2022-08-03T08:19:51;100025.72;;;25.59;80.51
46846;BME280;33947;46.804;134.252;2022-08-03T08:22:58;100009.25;;;25.61;78.70
46846;BME280;33947;46.804;134.252;2022-08-03T08:26:05;99997.03;;;25.65;77.61
46846;BME280;33947;46.804;134.252;2022-08-03T08:29:09;99997.09;;;25.55;79.19
46846;BME280;33947;46.804;134.252;2022-08-03T08:32:15;99988.09;;;25.54;78.82
46846;BME280;33947;46.804;134.252;2022-08-03T08:35:20;99995.91;;;25.67;78.15
46846;BME280;33947;46.804;134.252;2022-08-03T08:38:25;99987.66;;;25.59;78.49
46846;BME280;33947;46.804;134.252;2022-08-03T08:41:29;99952.06;;;25.42;79.50
46846;BME280;33947;46.804;134.252;2022-08-03T08:44:36;99962.38;;;25.49;79.75
46846;BME280;33947;46.804;134.252;2022-08-03T08:47:45;99967.91;;;25.29;81.37
46846;BME280;33947;46.804;134.252;2022-08-03T08:50:55;99960.31;;;25.05;83.38
46846;BME280;33947;46.804;134.252;2022-08-03T08:54:01;99972.00;;;25.05;83.35
46846;BME280;33947;46.804;134.252;2022-08-03T08:57:10;99958.53;;;25.13;83.71
46846;BME280;33947;46.804;134.252;2022-08-03T09:00:35;99952.38;;;25.11;83.81
46846;BME280;33947;46.804;134.252;2022-08-03T09:03:40;99958.72;;;25.02;84.51
46846;BME280;33947;46.804;134.252;2022-08-03T09:06:44;99967.50;;;24.86;86.97
46846;BME280;33947;46.804;134.252;2022-08-03T09:10:10;99984.19;;;25.01;86.05
46846;BME280;33947;46.804;134.252;2022-08-03T09:13:16;99970.94;;;24.88;86.89
46846;BME280;33947;46.804;134.252;2022-08-03T09:16:21;99972.72;;;24.60;86.25
46846;BME280;33947;46.804;134.252;2022-08-03T09:19:25;99966.38;;;24.89;85.78
46846;BME280;33947;46.804;134.252;2022-08-03T09:22:30;99976.59;;;25.05;85.56
46846;BME280;33947;46.804;134.252;2022-08-03T09:25:38;99864.47;;;24.37;84.96
46846;BME280;33947;46.804;134.252;2022-08-03T09:28:43;99974.44;;;25.08;84.77
46846;BME280;33947;46.804;134.252;2022-08-03T09:32:06;99969.97;;;25.17;84.51
46846;BME280;33947;46.804;134.252;2022-08-03T09:35:13;99932.78;;;24.90;84.45
46846;BME280;33947;46.804;134.252;2022-08-03T09:38:26;99969.41;;;25.13;84.65
46846;BME280;33947;46.804;134.252;2022-08-03T09:41:32;99975.78;;;25.22;84.00
46846;BME280;33947;46.804;134.252;2022-08-03T09:44:39;99972.38;;;25.20;83.49
46846;BME280;33947;46.804;134.252;2022-08-03T09:47:47;99962.41;;;25.11;83.78
46846;BME280;33947;46.804;134.252;2022-08-03T09:50:54;99968.25;;;25.16;84.05
46846;BME280;33947;46.804;134.252;2022-08-03T09:54:32;99972.59;;;25.09;84.44
46846;BME280;33947;46.804;134.252;2022-08-03T09:57:39;99891.38;;;24.58;84.88
46846;BME280;33947;46.804;134.252;2022-08-03T10:01:02;99956.25;;;24.71;87.10
46846;BME280;33947;46.804;134.252;2022-08-03T10:04:12;99973.00;;;24.66;88.19
46846;BME280;33947;46.804;134.252;2022-08-03T10:07:20;99976.84;;;24.64;88.16
46846;BME280;33947;46.804;134.252;2022-08-03T10:10:25;99944.88;;;24.48;87.22
46846;BME280;33947;46.804;134.252;2022-08-03T10:13:35;99934.31;;;24.35;86.26
46846;BME280;33947;46.804;134.252;2022-08-03T10:16:40;99973.31;;;24.53;86.31
46846;BME280;33947;46.804;134.252;2022-08-03T10:19:45;99996.16;;;24.61;85.90
46846;BME280;33947;46.804;134.252;2022-08-03T10:22:51;100006.31;;;24.59;86.00
46846;BME280;33947;46.804;134.252;2022-08-03T10:25:57;100021.47;;;24.32;87.25
46846;BME280;33947;46.804;134.252;2022-08-03T10:29:09;100025.31;;;24.39;86.21
46846;BME280;33947;46.804;134.252;2022-08-03T10:32:23;100025.78;;;24.34;85.43
46846;BME280;33947;46.804;134.252;2022-08-03T10:35:31;100024.91;;;24.24;84.80
46846;BME280;33947;46.804;134.252;2022-08-03T10:38:50;100012.94;;;24.07;84.18
46846;BME280;33947;46.804;134.252;2022-08-03T10:42:00;100031.47;;;24.11;84.23
46846;BME280;33947;46.804;134.252;2022-08-03T10:45:14;100028.34;;;24.06;84.51
46846;BME280;33947;46.804;134.252;2022-08-03T10:48:23;100002.72;;;23.69;85.44
46846;BME280;33947;46.804;134.252;2022-08-03T10:51:30;100015.84;;;23.84;85.48
46846;BME280;33947;46.804;134.252;2022-08-03T10:54:43;100019.69;;;23.81;85.56
46846;BME280;33947;46.804;134.252;2022-08-03T10:58:12;100023.03;;;23.44;88.37
46846;BME280;33947;46.804;134.252;2022-08-03T11:01:50;99945.16;;;23.05;87.56
46846;BME280;33947;46.804;134.252;2022-08-03T11:05:27;100020.78;;;23.49;88.16
46846;BME280;33947;46.804;134.252;2022-08-03T11:08:33;100033.63;;;23.57;87.56
46846;BME280;33947;46.804;134.252;2022-08-03T11:11:39;100027.91;;;23.40;89.16
46846;BME280;33947;46.804;134.252;2022-08-03T11:14:47;100037.63;;;23.53;87.77
46846;BME280;33947;46.804;134.252;2022-08-03T11:18:08;100046.63;;;23.53;88.49
46846;BME280;33947;46.804;134.252;2022-08-03T11:21:13;100045.47;;;23.56;87.87
46846;BME280;33947;46.804;134.252;2022-08-03T11:27:46;100060.09;;;23.34;89.87
46846;BME280;33947;46.804;134.252;2022-08-03T11:30:51;100052.38;;;23.29;90.45
46846;BME280;33947;46.804;134.252;2022-08-03T11:34:06;100061.09;;;23.33;91.05
46846;BME280;33947;46.804;134.252;2022-08-03T11:37:23;100069.94;;;23.35;90.47
46846;BME280;33947;46.804;134.252;2022-08-03T11:40:49;100067.94;;;23.37;89.72
46846;BME280;33947;46.804;134.252;2022-08-03T11:43:54;100057.25;;;23.35;89.46
46846;BME280;33947;46.804;134.252;2022-08-03T11:46:59;100059.38;;;23.32;89.59
46846;BME280;33947;46.804;134.252;2022-08-03T11:50:05;100047.22;;;23.26;89.61
46846;BME280;33947;46.804;134.252;2022-08-03T11:53:14;100053.75;;;23.23;89.86
46846;BME280;33947;46.804;134.252;2022-08-03T11:56:20;100046.22;;;23.27;89.21
46846;BME280;33947;46.804;134.252;2022-08-03T11:59:32;100048.44;;;23.22;89.04
46846;BME280;33947;46.804;134.252;2022-08-03T12:02:36;100051.97;;;23.12;89.85
46846;BME280;33947;46.804;134.252;2022-08-03T12:22:38;100069.19;;;22.80;90.34
46846;BME280;33947;46.804;134.252;2022-08-03T12:25:44;100055.56;;;22.70;91.59
46846;BME280;33947;46.804;134.252;2022-08-03T12:28:51;100066.47;;;22.59;92.86
46846;BME280;33947;46.804;134.252;2022-08-03T12:31:56;100061.47;;;22.43;93.82
46846;BME280;33947;46.804;134.252;2022-08-03T12:35:01;100056.78;;;22.45;93.48
46846;BME280;33947;46.804;134.252;2022-08-03T12:38:09;100062.50;;;22.84;89.83
46846;BME280;33947;46.804;134.252;2022-08-03T12:41:27;100054.84;;;22.68;90.49
46846;BME280;33947;46.804;134.252;2022-08-03T12:44:34;100055.72;;;22.69;91.09
46846;BME280;33947;46.804;134.252;2022-08-03T12:47:53;100047.94;;;22.54;92.06
46846;BME280;33947;46.804;134.252;2022-08-03T12:51:09;100061.47;;;22.54;92.85
46846;BME280;33947;46.804;134.252;2022-08-03T12:54:19;100043.50;;;22.53;91.75
46846;BME280;33947;46.804;134.252;2022-08-03T12:57:40;100049.72;;;22.65;90.74
46846;BME280;33947;46.804;134.252;2022-08-03T13:00:55;100050.13;;;22.61;90.97
46846;BME280;33947;46.804;134.252;2022-08-03T13:04:00;100059.81;;;22.63;91.51
46846;BME280;33947;46.804;134.252;2022-08-03T13:07:07;100056.53;;;22.60;92.02
46846;BME280;33947;46.804;134.252;2022-08-03T13:10:32;100041.53;;;22.44;93.20
46846;BME280;33947;46.804;134.252;2022-08-03T13:13:38;100031.78;;;22.32;94.18
46846;BME280;33947;46.804;134.252;2022-08-03T13:16:43;100034.09;;;22.36;93.94
46846;BME280;33947;46.804;134.252;2022-08-03T13:19:48;100038.03;;;22.32;94.37
46846;BME280;33947;46.804;134.252;2022-08-03T13:22:54;100038.38;;;22.39;93.57
46846;BME280;33947;46.804;134.252;2022-08-03T13:26:02;100046.72;;;22.47;92.79
46846;BME280;33947;46.804;134.252;2022-08-03T13:29:07;100041.00;;;22.29;93.88
46846;BME280;33947;46.804;134.252;2022-08-03T13:32:12;100029.19;;;21.97;95.67
46846;BME280;33947;46.804;134.252;2022-08-03T13:35:17;100049.94;;;22.08;95.93
46846;BME280;33947;46.804;134.252;2022-08-03T13:38:22;100045.38;;;22.09;95.43
46846;BME280;33947;46.804;134.252;2022-08-03T13:41:30;100042.16;;;22.15;94.57
46846;BME280;33947;46.804;134.252;2022-08-03T13:44:35;100058.09;;;22.30;93.96
46846;BME280;33947;46.804;134.252;2022-08-03T13:47:41;100036.63;;;22.17;93.75
46846;BME280;33947;46.804;134.252;2022-08-03T13:50:45;100032.72;;;22.09;93.66
46846;BME280;33947;46.804;134.252;2022-08-03T13:53:50;100067.50;;;22.14;94.54
46846;BME280;33947;46.804;134.252;2022-08-03T13:56:55;100059.16;;;22.17;94.31
46846;BME280;33947;46.804;134.252;2022-08-03T14:00:20;100072.00;;;22.25;93.38
46846;BME280;33947;46.804;134.252;2022-08-03T14:03:31;100062.44;;;22.21;93.11
46846;BME280;33947;46.804;134.252;2022-08-03T14:06:36;100063.00;;;21.92;95.21
46846;BME280;33947;46.804;134.252;2022-08-03T14:09:47;100063.19;;;21.79;97.18
46846;BME280;33947;46.804;134.252;2022-08-03T14:12:52;100059.00;;;21.63;98.68
46846;BME280;33947;46.804;134.252;2022-08-03T14:15:58;100060.97;;;21.84;97.17
46846;BME280;33947;46.804;134.252;2022-08-03T14:19:04;100069.41;;;21.91;96.32
46846;BME280;33947;46.804;134.252;2022-08-03T14:22:10;100059.50;;;21.80;96.76
46846;BME280;33947;46.804;134.252;2022-08-03T14:25:14;100058.41;;;21.71;97.45
46846;BME280;33947;46.804;134.252;2022-08-03T14:28:20;100060.72;;;21.87;95.72
46846;BME280;33947;46.804;134.252;2022-08-03T14:31:25;100045.59;;;21.85;94.83
46846;BME280;33947;46.804;134.252;2022-08-03T14:34:50;100056.28;;;21.75;94.92
46846;BME280;33947;46.804;134.252;2022-08-03T14:37:55;100056.28;;;21.63;96.02
46846;BME280;33947;46.804;134.252;2022-08-03T14:40:59;100063.19;;;21.56;96.75
46846;BME280;33947;46.804;134.252;2022-08-03T14:44:04;100057.66;;;21.46;97.61
46846;BME280;33947;46.804;134.252;2022-08-03T14:47:09;100051.25;;;21.59;95.88
46846;BME280;33947;46.804;134.252;2022-08-03T14:50:14;100047.13;;;21.66;94.94
46846;BME280;33947;46.804;134.252;2022-08-03T14:53:38;100046.72;;;21.59;94.80
46846;BME280;33947;46.804;134.252;2022-08-03T14:56:44;100049.69;;;21.45;96.33
46846;BME280;33947;46.804;134.252;2022-08-03T14:59:49;100050.91;;;21.29;97.81
46846;BME280;33947;46.804;134.252;2022-08-03T15:02:59;100050.03;;;21.06;100.00
46846;BME280;33947;46.804;134.252;2022-08-03T15:06:04;100046.13;;;21.10;100.00
46846;BME280;33947;46.804;134.252;2022-08-03T15:09:08;100042.06;;;21.27;98.42
46846;BME280;33947;46.804;134.252;2022-08-03T15:12:26;100042.56;;;21.32;98.00
46846;BME280;33947;46.804;134.252;2022-08-03T15:15:31;100029.28;;;21.29;97.73
46846;BME280;33947;46.804;134.252;2022-08-03T15:18:36;100048.69;;;21.34;97.45
46846;BME280;33947;46.804;134.252;2022-08-03T15:21:40;100043.31;;;21.46;96.21
46846;BME280;33947;46.804;134.252;2022-08-03T15:24:49;100048.22;;;21.40;96.80
46846;BME280;33947;46.804;134.252;2022-08-03T15:27:54;100046.25;;;21.43;96.25
46846;BME280;33947;46.804;134.252;2022-08-03T15:31:06;100044.66;;;21.40;96.70
46846;BME280;33947;46.804;134.252;2022-08-03T15:34:11;100038.50;;;21.15;98.38
46846;BME280;33947;46.804;134.252;2022-08-03T15:37:16;100042.81;;;21.06;99.92
46846;BME280;33947;46.804;134.252;2022-08-03T15:40:20;100042.03;;;20.93;100.00
46846;BME280;33947;46.804;134.252;2022-08-03T15:43:25;100039.88;;;21.09;100.00
46846;BME280;33947;46.804;134.252;2022-08-03T15:46:30;100035.94;;;21.25;99.14
46846;BME280;33947;46.804;134.252;2022-08-03T15:49:34;100025.00;;;21.27;98.56
46846;BME280;33947;46.804;134.252;2022-08-03T15:52:39;100023.91;;;21.18;99.01
46846;BME280;33947;46.804;134.252;2022-08-03T15:55:43;99996.53;;;20.88;100.00
46846;BME280;33947;46.804;134.252;2022-08-03T15:58:48;100037.38;;;20.95;100.00
46846;BME280;33947;46.804;134.252;2022-08-03T16:02:13;100043.56;;;21.08;100.00
46846;BME280;33947;46.804;134.252;2022-08-03T16:05:18;100039.88;;;21.09;99.91
46846;BME280;33947;46.804;134.252;2022-08-03T16:08:23;100038.78;;;21.23;98.90
46846;BME280;33947;46.804;134.252;2022-08-03T16:11:27;100048.44;;;21.26;98.01
46846;BME280;33947;46.804;134.252;2022-08-03T16:14:32;100034.97;;;21.03;98.69
46846;BME280;33947;46.804;134.252;2022-08-03T16:17:53;100039.00;;;21.09;98.94
46846;BME280;33947;46.804;134.252;2022-08-03T16:20:58;100035.44;;;21.08;98.93
46846;BME280;33947;46.804;134.252;2022-08-03T16:24:04;100047.59;;;21.14;98.02
46846;BME280;33947;46.804;134.252;2022-08-03T16:27:17;100051.03;;;21.16;97.26
46846;BME280;33947;46.804;134.252;2022-08-03T16:30:43;100042.31;;;21.13;97.11
46846;BME280;33947;46.804;134.252;2022-08-03T16:33:48;100056.56;;;21.15;96.83
46846;BME280;33947;46.804;134.252;2022-08-03T16:36:53;100072.28;;;21.09;97.35
46846;BME280;33947;46.804;134.252;2022-08-03T16:39:57;100063.91;;;21.01;97.62
46846;BME280;33947;46.804;134.252;2022-08-03T16:43:13;100065.84;;;20.88;98.08
46846;BME280;33947;46.804;134.252;2022-08-03T16:46:21;100070.56;;;20.73;100.00
46846;BME280;33947;46.804;134.252;2022-08-03T16:49:25;100080.88;;;20.32;100.00
46846;BME280;33947;46.804;134.252;2022-08-03T16:52:50;100077.13;;;20.46;100.00
46846;BME280;33947;46.804;134.252;2022-08-03T16:55:57;100070.19;;;20.30;100.00
46846;BME280;33947;46.804;134.252;2022-08-03T16:59:02;100060.31;;;20.42;100.00
46846;BME280;33947;46.804;134.252;2022-08-03T17:02:17;100071.13;;;20.53;100.00
46846;BME280;33947;46.804;134.252;2022-08-03T17:05:28;100063.09;;;20.65;100.00
46846;BME280;33947;46.804;134.252;2022-08-03T17:08:50;100061.66;;;20.84;99.36
46846;BME280;33947;46.804;134.252;2022-08-03T17:11:57;100053.81;;;20.92;98.58